sensor_id;sensor_type;location;lat;lon;timestamp;pressure;altitude;pressure_sealevel;temperature;humidity
20696;BME280;10507;52.754;13.040;2023-02-12T00:01:07;103150.66;;;6.31;100.00
20696;BME280;10507;52.754;13.040;2023-02-12T00:03:38;103152.41;;;6.32;100.00
20696;BME280;10507;52.754;13.040;2023-02-12T00:06:08;103141.81;;;6.30;100.00
20696;BME280;10507;52.754;13.040;2023-02-12T00:08:37;103143.56;;;6.30;100.00
20696;BME280;10507;52.754;13.040;2023-02-12T00:11:10;103141.78;;;6.27;100.00
20696;BME280;10507;52.754;13.040;2023-02-12T00:13:39;103147.97;;;6.29;100.00
20696;BME280;10507;52.754;13.040;2023-02-12T00:16:08;103163.03;;;6.32;100.00
20696;BME280;10507;52.754;13.040;2023-02-12T00:18:38;103169.22;;;6.32;100.00
20696;BME280;10507;52.754;13.040;2023-02-12T00:21:06;103141.78;;;6.27;100.00
20696;BME280;10507;52.754;13.040;2023-02-12T00:23:36;103139.13;;;6.26;100.00
20696;BME280;10507;52.754;13.040;2023-02-12T00:26:06;103145.31;;;6.26;100.00
20696;BME280;10507;52.754;13.040;2023-02-12T00:28:34;103116.06;;;6.17;100.00
20696;BME280;10507;52.754;13.040;2023-02-12T00:31:06;103134.63;;;6.18;100.00
20696;BME280;10507;52.754;13.040;2023-02-12T00:33:35;103133.72;;;6.15;100.00
20696;BME280;10507;52.754;13.040;2023-02-12T00:36:06;103165.56;;;6.18;100.00
20696;BME280;10507;52.754;13.040;2023-02-12T00:38:34;103194.81;;;6.24;100.00
20696;BME280;10507;52.754;13.040;2023-02-12T00:41:02;103208.97;;;6.28;100.00
20696;BME280;10507;52.754;13.040;2023-02-12T00:43:31;103202.78;;;6.27;100.00
20696;BME280;10507;52.754;13.040;2023-02-12T00:45:59;103190.38;;;6.24;100.00
20696;BME280;10507;52.754;13.040;2023-02-12T00:48:28;103195.72;;;6.28;100.00
20696;BME280;10507;52.754;13.040;2023-02-12T00:50:56;103208.16;;;6.30;100.00
20696;BME280;10507;52.754;13.040;2023-02-12T00:53:26;103201.91;;;6.30;100.00
20696;BME280;10507;52.754;13.040;2023-02-12T00:55:54;103202.84;;;6.33;100.00
20696;BME280;10507;52.754;13.040;2023-02-12T00:58:23;103152.41;;;6.26;100.00
20696;BME280;10507;52.754;13.040;2023-02-12T01:00:52;103168.31;;;6.26;100.00
20696;BME280;10507;52.754;13.040;2023-02-12T01:03:20;103194.00;;;6.33;100.00
20696;BME280;10507;52.754;13.040;2023-02-12T01:05:50;103173.59;;;6.27;100.00
20696;BME280;10507;52.754;13.040;2023-02-12T01:08:19;103159.41;;;6.20;100.00
20696;BME280;10507;52.754;13.040;2023-02-12T01:10:54;103175.38;;;6.23;100.00
20696;BME280;10507;52.754;13.040;2023-02-12T01:13:22;103162.91;;;6.18;100.00
20696;BME280;10507;52.754;13.040;2023-02-12T01:16:01;103191.28;;;6.23;100.00
20696;BME280;10507;52.754;13.040;2023-02-12T01:18:29;103185.94;;;6.20;100.00
20696;BME280;10507;52.754;13.040;2023-02-12T01:20:58;103180.59;;;6.17;100.00
20696;BME280;10507;52.754;13.040;2023-02-12T01:23:26;103184.09;;;6.13;100.00
20696;BME280;10507;52.754;13.040;2023-02-12T01:25:57;103193.81;;;6.14;100.00
20696;BME280;10507;52.754;13.040;2023-02-12T01:28:25;103186.72;;;6.10;100.00
20696;BME280;10507;52.754;13.040;2023-02-12T01:30:53;103194.72;;;6.13;100.00
20696;BME280;10507;52.754;13.040;2023-02-12T01:33:21;103201.75;;;6.11;100.00
20696;BME280;10507;52.754;13.040;2023-02-12T01:35:49;103223.88;;;6.13;100.00
20696;BME280;10507;52.754;13.040;2023-02-12T01:38:18;103254.91;;;6.20;100.00
20696;BME280;10507;52.754;13.040;2023-02-12T01:40:47;103240.72;;;6.15;100.00
20696;BME280;10507;52.754;13.040;2023-02-12T01:43:16;103259.31;;;6.20;100.00
20696;BME280;10507;52.754;13.040;2023-02-12T01:45:47;103254.00;;;6.18;100.00
20696;BME280;10507;52.754;13.040;2023-02-12T01:48:22;103281.47;;;6.25;100.00
20696;BME280;10507;52.754;13.040;2023-02-12T01:50:52;103258.44;;;6.21;100.00
20696;BME280;10507;52.754;13.040;2023-02-12T01:53:23;103243.41;;;6.20;100.00
20696;BME280;10507;52.754;13.040;2023-02-12T01:55:57;103237.22;;;6.19;100.00
20696;BME280;10507;52.754;13.040;2023-02-12T01:58:30;103239.88;;;6.21;100.00
20696;BME280;10507;52.754;13.040;2023-02-12T02:01:05;103258.47;;;6.24;100.00
20696;BME280;10507;52.754;13.040;2023-02-12T02:03:37;103232.81;;;6.23;100.00
20696;BME280;10507;52.754;13.040;2023-02-12T02:06:10;103211.56;;;6.17;100.00
20696;BME280;10507;52.754;13.040;2023-02-12T02:08:39;103239.88;;;6.21;100.00
20696;BME280;10507;52.754;13.040;2023-02-12T02:11:08;103257.59;;;6.25;100.00
20696;BME280;10507;52.754;13.040;2023-02-12T02:13:52;103239.03;;;6.23;100.00
20696;BME280;10507;52.754;13.040;2023-02-12T02:16:42;103217.75;;;6.17;100.00
20696;BME280;10507;52.754;13.040;2023-02-12T02:19:26;103230.16;;;6.21;100.00
20696;BME280;10507;52.754;13.040;2023-02-12T02:22:05;103212.41;;;6.16;100.00
20696;BME280;10507;52.754;13.040;2023-02-12T02:24:53;103197.31;;;6.09;100.00
20696;BME280;10507;52.754;13.040;2023-02-12T02:27:37;103232.75;;;6.15;100.00
20696;BME280;10507;52.754;13.040;2023-02-12T02:30:36;103214.19;;;6.15;100.00
20696;BME280;10507;52.754;13.040;2023-02-12T02:33:21;103224.81;;;6.18;100.00
20696;BME280;10507;52.754;13.040;2023-02-12T02:35:54;103223.06;;;6.20;100.00
20696;BME280;10507;52.754;13.040;2023-02-12T02:38:31;103225.78;;;6.23;100.00
20696;BME280;10507;52.754;13.040;2023-02-12T02:41:04;103219.59;;;6.28;100.00
20696;BME280;10507;52.754;13.040;2023-02-12T02:43:39;103203.69;;;6.26;100.00
20696;BME280;10507;52.754;13.040;2023-02-12T02:46:17;103179.75;;;6.23;100.00
20696;BME280;10507;52.754;13.040;2023-02-12T02:48:49;103182.41;;;6.21;100.00
20696;BME280;10507;52.754;13.040;2023-02-12T02:51:21;103186.84;;;6.24;100.00
20696;BME280;10507;52.754;13.040;2023-02-12T02:53:53;103173.56;;;6.19;100.00
20696;BME280;10507;52.754;13.040;2023-02-12T02:56:24;103188.56;;;6.20;100.00
20696;BME280;10507;52.754;13.040;2023-02-12T02:58:57;103202.78;;;6.24;100.00
20696;BME280;10507;52.754;13.040;2023-02-12T03:01:30;103192.97;;;6.18;100.00
20696;BME280;10507;52.754;13.040;2023-02-12T03:04:03;103191.22;;;6.17;100.00
20696;BME280;10507;52.754;13.040;2023-02-12T03:06:39;103185.88;;;6.14;100.00
20696;BME280;10507;52.754;13.040;2023-02-12T03:09:14;103178.78;;;6.10;100.00
20696;BME280;10507;52.754;13.040;2023-02-12T03:11:44;103203.56;;;6.12;100.00
20696;BME280;10507;52.754;13.040;2023-02-12T03:14:15;103223.00;;;6.14;100.00
20696;BME280;10507;52.754;13.040;2023-02-12T03:17:13;103246.94;;;6.19;100.00
20696;BME280;10507;52.754;13.040;2023-02-12T03:20:11;103267.31;;;6.21;100.00
20696;BME280;10507;52.754;13.040;2023-02-12T03:23:09;103249.59;;;6.19;100.00
20696;BME280;10507;52.754;13.040;2023-02-12T03:26:08;103250.44;;;6.18;100.00
20696;BME280;10507;52.754;13.040;2023-02-12T03:28:37;103247.78;;;6.16;100.00
20696;BME280;10507;52.754;13.040;2023-02-12T03:31:09;103241.53;;;6.11;100.00
20696;BME280;10507;52.754;13.040;2023-02-12T03:33:50;103265.44;;;6.14;100.00
20696;BME280;10507;52.754;13.040;2023-02-12T03:36:27;103288.47;;;6.17;100.00
20696;BME280;10507;52.754;13.040;2023-02-12T03:39:03;103298.19;;;6.15;100.00
20696;BME280;10507;52.754;13.040;2023-02-12T03:41:39;103299.03;;;6.12;100.00
20696;BME280;10507;52.754;13.040;2023-02-12T03:44:17;103317.63;;;6.15;100.00
20696;BME280;10507;52.754;13.040;2023-02-12T03:46:58;103299.00;;;6.11;100.00
20696;BME280;10507;52.754;13.040;2023-02-12T03:49:33;103323.78;;;6.14;100.00
20696;BME280;10507;52.754;13.040;2023-02-12T03:52:03;103306.94;;;6.09;100.00
20696;BME280;10507;52.754;13.040;2023-02-12T03:54:32;103326.38;;;6.10;100.00
20696;BME280;10507;52.754;13.040;2023-02-12T03:57:04;103335.25;;;6.10;100.00
20696;BME280;10507;52.754;13.040;2023-02-12T03:59:35;103343.22;;;6.10;100.00
20696;BME280;10507;52.754;13.040;2023-02-12T04:02:06;103359.16;;;6.13;100.00
20696;BME280;10507;52.754;13.040;2023-02-12T04:04:36;103339.66;;;6.08;100.00
20696;BME280;10507;52.754;13.040;2023-02-12T04:07:04;103343.22;;;6.10;100.00
20696;BME280;10507;52.754;13.040;2023-02-12T04:09:35;103352.91;;;6.10;100.00
20696;BME280;10507;52.754;13.040;2023-02-12T04:12:19;103355.56;;;6.10;100.00
20696;BME280;10507;52.754;13.040;2023-02-12T04:14:53;103335.22;;;6.06;100.00
20696;BME280;10507;52.754;13.040;2023-02-12T04:17:32;103347.63;;;6.08;100.00
20696;BME280;10507;52.754;13.040;2023-02-12T04:20:09;103336.94;;;6.05;100.00
20696;BME280;10507;52.754;13.040;2023-02-12T04:22:48;103332.53;;;6.04;100.00
20696;BME280;10507;52.754;13.040;2023-02-12T04:25:32;103352.00;;;6.06;100.00
20696;BME280;10507;52.754;13.040;2023-02-12T04:28:09;103354.63;;;6.04;100.00
20696;BME280;10507;52.754;13.040;2023-02-12T04:30:44;103359.06;;;6.07;100.00
20696;BME280;10507;52.754;13.040;2023-02-12T04:33:17;103351.06;;;6.02;100.00
20696;BME280;10507;52.754;13.040;2023-02-12T04:35:54;103359.06;;;6.04;100.00
20696;BME280;10507;52.754;13.040;2023-02-12T04:38:30;103369.75;;;6.10;100.00
20696;BME280;10507;52.754;13.040;2023-02-12T04:40:59;103340.50;;;6.06;100.00
20696;BME280;10507;52.754;13.040;2023-02-12T04:43:28;103325.44;;;6.03;100.00
20696;BME280;10507;52.754;13.040;2023-02-12T04:45:56;103301.50;;;5.98;100.00
20696;BME280;10507;52.754;13.040;2023-02-12T04:48:25;103319.25;;;6.02;100.00
20696;BME280;10507;52.754;13.040;2023-02-12T04:50:55;103316.59;;;6.01;100.00
20696;BME280;10507;52.754;13.040;2023-02-12T04:53:23;103321.91;;;6.04;100.00
20696;BME280;10507;52.754;13.040;2023-02-12T04:55:51;103328.09;;;6.04;100.00
20696;BME280;10507;52.754;13.040;2023-02-12T04:58:19;103313.06;;;6.02;100.00
20696;BME280;10507;52.754;13.040;2023-02-12T05:00:47;103307.75;;;6.02;100.00
20696;BME280;10507;52.754;13.040;2023-02-12T05:03:15;103298.00;;;5.99;100.00
20696;BME280;10507;52.754;13.040;2023-02-12T05:05:43;103305.97;;;6.01;100.00
20696;BME280;10507;52.754;13.040;2023-02-12T05:08:12;103308.56;;;5.98;100.00
20696;BME280;10507;52.754;13.040;2023-02-12T05:10:41;103305.94;;;5.98;100.00
20696;BME280;10507;52.754;13.040;2023-02-12T05:13:09;103293.47;;;5.94;100.00
20696;BME280;10507;52.754;13.040;2023-02-12T05:15:37;103332.44;;;5.98;100.00
20696;BME280;10507;52.754;13.040;2023-02-12T05:18:06;103347.53;;;6.02;100.00
20696;BME280;10507;52.754;13.040;2023-02-12T05:20:34;103350.19;;;6.02;100.00
20696;BME280;10507;52.754;13.040;2023-02-12T05:23:02;103336.91;;;5.99;100.00
20696;BME280;10507;52.754;13.040;2023-02-12T05:25:31;103348.41;;;6.01;100.00
20696;BME280;10507;52.754;13.040;2023-02-12T05:28:01;103337.75;;;5.98;100.00
20696;BME280;10507;52.754;13.040;2023-02-12T05:30:29;103319.97;;;5.92;100.00
20696;BME280;10507;52.754;13.040;2023-02-12T05:32:57;103351.91;;;6.00;100.00
20696;BME280;10507;52.754;13.040;2023-02-12T05:35:25;103355.47;;;5.99;100.00
20696;BME280;10507;52.754;13.040;2023-02-12T05:37:53;103341.28;;;5.97;100.00
20696;BME280;10507;52.754;13.040;2023-02-12T05:40:21;103339.50;;;5.96;100.00
20696;BME280;10507;52.754;13.040;2023-02-12T05:42:51;103357.19;;;5.97;100.00
20696;BME280;10507;52.754;13.040;2023-02-12T05:45:19;103383.75;;;6.00;100.00
20696;BME280;10507;52.754;13.040;2023-02-12T05:47:47;103395.22;;;6.00;100.00
20696;BME280;10507;52.754;13.040;2023-02-12T05:50:15;103408.53;;;6.02;100.00
20696;BME280;10507;52.754;13.040;2023-02-12T05:52:43;103429.78;;;6.03;100.00
20696;BME280;10507;52.754;13.040;2023-02-12T05:55:14;103416.47;;;6.02;100.00
20696;BME280;10507;52.754;13.040;2023-02-12T05:57:43;103415.56;;;6.00;100.00
20696;BME280;10507;52.754;13.040;2023-02-12T06:00:13;103434.13;;;6.00;100.00
20696;BME280;10507;52.754;13.040;2023-02-12T06:02:41;103434.09;;;5.98;100.00
20696;BME280;10507;52.754;13.040;2023-02-12T06:05:09;103470.44;;;6.04;100.00
20696;BME280;10507;52.754;13.040;2023-02-12T06:07:37;103496.09;;;6.07;100.00
20696;BME280;10507;52.754;13.040;2023-02-12T06:10:07;103474.84;;;6.05;100.00
20696;BME280;10507;52.754;13.040;2023-02-12T06:12:35;103481.03;;;6.04;100.00
20696;BME280;10507;52.754;13.040;2023-02-12T06:15:04;103497.00;;;6.07;100.00
20696;BME280;10507;52.754;13.040;2023-02-12T06:17:34;103504.09;;;6.10;100.00
20696;BME280;10507;52.754;13.040;2023-02-12T06:20:03;103490.81;;;6.07;100.00
20696;BME280;10507;52.754;13.040;2023-02-12T06:22:31;103495.25;;;6.09;100.00
20696;BME280;10507;52.754;13.040;2023-02-12T06:25:04;103485.56;;;6.11;100.00
20696;BME280;10507;52.754;13.040;2023-02-12T06:27:33;103456.34;;;6.08;100.00
20696;BME280;10507;52.754;13.040;2023-02-12T06:30:01;103463.50;;;6.12;100.00
20696;BME280;10507;52.754;13.040;2023-02-12T06:32:29;103439.59;;;6.11;100.00
20696;BME280;10507;52.754;13.040;2023-02-12T06:34:58;103438.72;;;6.13;100.00
20696;BME280;10507;52.754;13.040;2023-02-12T06:37:26;103436.13;;;6.15;100.00
20696;BME280;10507;52.754;13.040;2023-02-12T06:39:54;103427.25;;;6.14;100.00
20696;BME280;10507;52.754;13.040;2023-02-12T06:42:23;103418.44;;;6.15;100.00
20696;BME280;10507;52.754;13.040;2023-02-12T06:44:51;103449.44;;;6.19;100.00
20696;BME280;10507;52.754;13.040;2023-02-12T06:47:19;103428.22;;;6.19;100.00
20696;BME280;10507;52.754;13.040;2023-02-12T06:49:47;103392.75;;;6.14;100.00
20696;BME280;10507;52.754;13.040;2023-02-12T06:52:16;103393.63;;;6.13;100.00
20696;BME280;10507;52.754;13.040;2023-02-12T06:54:44;103406.03;;;6.16;100.00
20696;BME280;10507;52.754;13.040;2023-02-12T06:57:12;103407.00;;;6.19;100.00
20696;BME280;10507;52.754;13.040;2023-02-12T06:59:40;103396.38;;;6.19;100.00
20696;BME280;10507;52.754;13.040;2023-02-12T07:02:09;103399.03;;;6.21;100.00
20696;BME280;10507;52.754;13.040;2023-02-12T07:04:38;103408.88;;;6.28;100.00
20696;BME280;10507;52.754;13.040;2023-02-12T07:07:06;103393.84;;;6.29;100.00
20696;BME280;10507;52.754;13.040;2023-02-12T07:09:36;103408.06;;;6.35;100.00
20696;BME280;10507;52.754;13.040;2023-02-12T07:12:04;103380.66;;;6.35;100.00
20696;BME280;10507;52.754;13.040;2023-02-12T07:14:32;103395.75;;;6.42;100.00
20696;BME280;10507;52.754;13.040;2023-02-12T07:17:00;103388.75;;;6.47;100.00
20696;BME280;10507;52.754;13.040;2023-02-12T07:19:29;103382.56;;;6.48;100.00
20696;BME280;10507;52.754;13.040;2023-02-12T07:21:57;103382.63;;;6.54;100.00
20696;BME280;10507;52.754;13.040;2023-02-12T07:24:26;103372.03;;;6.56;100.00
20696;BME280;10507;52.754;13.040;2023-02-12T07:26:55;103382.69;;;6.60;100.00
20696;BME280;10507;52.754;13.040;2023-02-12T07:29:23;103381.88;;;6.66;100.00
20696;BME280;10507;52.754;13.040;2023-02-12T07:31:51;103378.38;;;6.72;100.00
20696;BME280;10507;52.754;13.040;2023-02-12T07:34:20;103379.34;;;6.78;100.00
20696;BME280;10507;52.754;13.040;2023-02-12T07:36:48;103341.25;;;6.76;100.00
20696;BME280;10507;52.754;13.040;2023-02-12T07:39:16;103347.50;;;6.83;100.00
20696;BME280;10507;52.754;13.040;2023-02-12T07:41:44;103352.84;;;6.86;100.00
20696;BME280;10507;52.754;13.040;2023-02-12T07:44:13;103353.78;;;6.93;100.00
20696;BME280;10507;52.754;13.040;2023-02-12T07:46:42;103342.28;;;6.92;100.00
20696;BME280;10507;52.754;13.040;2023-02-12T07:49:15;103313.94;;;6.91;100.00
20696;BME280;10507;52.754;13.040;2023-02-12T07:51:44;103332.59;;;6.96;100.00
20696;BME280;10507;52.754;13.040;2023-02-12T07:54:13;103321.97;;;6.97;100.00
20696;BME280;10507;52.754;13.040;2023-02-12T07:56:42;103317.53;;;6.96;100.00
20696;BME280;10507;52.754;13.040;2023-02-12T07:59:15;103331.72;;;6.98;100.00
20696;BME280;10507;52.754;13.040;2023-02-12T08:01:45;103324.63;;;6.99;100.00
20696;BME280;10507;52.754;13.040;2023-02-12T08:04:16;103313.13;;;6.98;100.00
20696;BME280;10507;52.754;13.040;2023-02-12T08:06:46;103319.28;;;6.94;100.00
20696;BME280;10507;52.754;13.040;2023-02-12T08:09:17;103325.47;;;6.95;100.00
20696;BME280;10507;52.754;13.040;2023-02-12T08:11:47;103337.84;;;6.93;100.00
20696;BME280;10507;52.754;13.040;2023-02-12T08:14:19;103352.94;;;6.94;100.00
20696;BME280;10507;52.754;13.040;2023-02-12T08:16:48;103331.59;;;6.86;100.00
20696;BME280;10507;52.754;13.040;2023-02-12T08:19:17;103375.03;;;6.93;100.00
20696;BME280;10507;52.754;13.040;2023-02-12T08:21:51;103379.47;;;6.92;100.00
20696;BME280;10507;52.754;13.040;2023-02-12T08:24:21;103414.03;;;6.95;100.00
20696;BME280;10507;52.754;13.040;2023-02-12T08:26:49;103435.31;;;6.98;100.00
20696;BME280;10507;52.754;13.040;2023-02-12T08:29:21;103458.31;;;6.99;100.00
20696;BME280;10507;52.754;13.040;2023-02-12T08:31:57;103489.44;;;7.10;100.00
20696;BME280;10507;52.754;13.040;2023-02-12T08:34:27;103525.91;;;7.24;100.00
20696;BME280;10507;52.754;13.040;2023-02-12T08:36:56;103518.84;;;7.26;100.00
20696;BME280;10507;52.754;13.040;2023-02-12T08:39:26;103499.34;;;7.24;100.00
20696;BME280;10507;52.754;13.040;2023-02-12T08:41:54;103558.88;;;7.43;100.00
20696;BME280;10507;52.754;13.040;2023-02-12T08:44:24;103547.38;;;7.46;100.00
20696;BME280;10507;52.754;13.040;2023-02-12T08:46:52;103562.53;;;7.58;100.00
20696;BME280;10507;52.754;13.040;2023-02-12T08:49:22;103534.19;;;7.60;100.00
20696;BME280;10507;52.754;13.040;2023-02-12T08:51:52;103547.59;;;7.69;100.00
20696;BME280;10507;52.754;13.040;2023-02-12T08:54:23;103519.22;;;7.71;100.00
20696;BME280;10507;52.754;13.040;2023-02-12T08:56:53;103536.13;;;7.76;100.00
20696;BME280;10507;52.754;13.040;2023-02-12T08:59:24;103545.03;;;7.84;100.00
20696;BME280;10507;52.754;13.040;2023-02-12T09:01:53;103526.44;;;7.83;100.00
20696;BME280;10507;52.754;13.040;2023-02-12T09:04:23;103498.91;;;7.79;100.00
20696;BME280;10507;52.754;13.040;2023-02-12T09:06:52;103508.72;;;7.85;100.00
20696;BME280;10507;52.754;13.040;2023-02-12T09:09:22;103498.03;;;7.80;100.00
20696;BME280;10507;52.754;13.040;2023-02-12T09:11:50;103480.25;;;7.78;100.00
20696;BME280;10507;52.754;13.040;2023-02-12T09:14:18;103525.50;;;7.82;100.00
20696;BME280;10507;52.754;13.040;2023-02-12T09:16:51;103553.09;;;7.92;100.00
20696;BME280;10507;52.754;13.040;2023-02-12T09:19:20;103506.91;;;7.82;100.00
20696;BME280;10507;52.754;13.040;2023-02-12T09:21:50;103554.88;;;7.95;100.00
20696;BME280;10507;52.754;13.040;2023-02-12T09:24:22;103543.34;;;7.89;100.00
20696;BME280;10507;52.754;13.040;2023-02-12T09:26:50;103529.97;;;7.86;100.00
20696;BME280;10507;52.754;13.040;2023-02-12T09:29:18;103569.06;;;7.95;100.00
20696;BME280;10507;52.754;13.040;2023-02-12T09:31:46;103553.09;;;7.94;100.00
20696;BME280;10507;52.754;13.040;2023-02-12T09:34:16;103544.19;;;7.88;100.00
20696;BME280;10507;52.754;13.040;2023-02-12T09:36:44;103575.25;;;7.93;100.00
20696;BME280;10507;52.754;13.040;2023-02-12T09:39:12;103587.66;;;7.90;100.00
20696;BME280;10507;52.754;13.040;2023-02-12T09:41:53;103593.00;;;7.94;100.00
20696;BME280;10507;52.754;13.040;2023-02-12T09:44:31;103550.34;;;7.81;100.00
20696;BME280;10507;52.754;13.040;2023-02-12T09:47:07;103546.78;;;7.79;100.00
20696;BME280;10507;52.754;13.040;2023-02-12T09:49:53;103557.41;;;7.78;100.00
20696;BME280;10507;52.754;13.040;2023-02-12T09:52:28;103580.50;;;7.80;100.00
20696;BME280;10507;52.754;13.040;2023-02-12T09:54:58;103618.75;;;7.95;100.00
20696;BME280;10507;52.754;13.040;2023-02-12T09:57:29;103562.78;;;7.85;100.00
20696;BME280;10507;52.754;13.040;2023-02-12T10:00:03;103603.63;;;7.94;100.00
20696;BME280;10507;52.754;13.040;2023-02-12T10:02:35;103575.28;;;7.94;100.00
20696;BME280;10507;52.754;13.040;2023-02-12T10:05:14;103572.59;;;7.93;100.00
20696;BME280;10507;52.754;13.040;2023-02-12T10:08:11;103580.66;;;7.99;100.00
20696;BME280;10507;52.754;13.040;2023-02-12T10:10:50;103557.56;;;7.98;100.00
20696;BME280;10507;52.754;13.040;2023-02-12T10:21:02;103485.63;;;7.81;100.00
20696;BME280;10507;52.754;13.040;2023-02-12T10:24:15;103499.78;;;7.77;100.00
20696;BME280;10507;52.754;13.040;2023-02-12T10:27:12;103489.97;;;7.71;100.00
20696;BME280;10507;52.754;13.040;2023-02-12T10:29:49;103507.72;;;7.72;100.00
20696;BME280;10507;52.754;13.040;2023-02-12T10:32:28;103480.22;;;7.67;100.00
20696;BME280;10507;52.754;13.040;2023-02-12T10:35:21;103455.34;;;7.62;100.00
20696;BME280;10507;52.754;13.040;2023-02-12T10:38:18;103441.13;;;7.60;100.00
20696;BME280;10507;52.754;13.040;2023-02-12T10:40:58;103430.44;;;7.50;100.00
20696;BME280;10507;52.754;13.040;2023-02-12T10:43:44;103476.63;;;7.66;100.00
20696;BME280;10507;52.754;13.040;2023-02-12T10:46:40;103446.47;;;7.64;100.00
20696;BME280;10507;52.754;13.040;2023-02-12T10:49:20;103459.88;;;7.74;100.00
20696;BME280;10507;52.754;13.040;2023-02-12T10:52:03;103405.75;;;7.65;100.00
20696;BME280;10507;52.754;13.040;2023-02-12T10:54:53;103403.00;;;7.55;100.00
20696;BME280;10507;52.754;13.040;2023-02-12T10:57:32;103369.22;;;7.41;100.00
20696;BME280;10507;52.754;13.040;2023-02-12T11:00:32;103374.53;;;7.38;100.00
20696;BME280;10507;52.754;13.040;2023-02-12T11:03:31;103401.16;;;7.46;100.00
20696;BME280;10507;52.754;13.040;2023-02-12T11:06:30;103410.13;;;7.56;100.00
20696;BME280;10507;52.754;13.040;2023-02-12T11:09:01;103434.97;;;7.64;100.00
20696;BME280;10507;52.754;13.040;2023-02-12T11:11:40;103420.81;;;7.68;100.00
20696;BME280;10507;52.754;13.040;2023-02-12T11:14:23;103448.38;;;7.82;100.00
20696;BME280;10507;52.754;13.040;2023-02-12T11:17:12;103433.34;;;7.89;100.00
20696;BME280;10507;52.754;13.040;2023-02-12T11:20:07;103446.78;;;8.09;100.00
20696;BME280;10507;52.754;13.040;2023-02-12T11:22:51;103394.44;;;8.08;100.00
20696;BME280;10507;52.754;13.040;2023-02-12T11:25:21;103372.25;;;8.06;100.00
20696;BME280;10507;52.754;13.040;2023-02-12T11:28:13;103353.66;;;8.15;100.00
20696;BME280;10507;52.754;13.040;2023-02-12T11:30:49;103395.47;;;8.39;100.00
20696;BME280;10507;52.754;13.040;2023-02-12T11:33:29;103395.53;;;8.58;100.00
20696;BME280;10507;52.754;13.040;2023-02-12T11:36:00;103322.78;;;8.62;100.00
20696;BME280;10507;52.754;13.040;2023-02-12T11:38:35;103308.56;;;8.77;100.00
20696;BME280;10507;52.754;13.040;2023-02-12T11:41:18;103162.09;;;8.55;100.00
20696;BME280;10507;52.754;13.040;2023-02-12T11:43:50;103134.59;;;8.55;100.00
20696;BME280;10507;52.754;13.040;2023-02-12T11:46:22;103199.38;;;8.70;100.00
20696;BME280;10507;52.754;13.040;2023-02-12T11:48:53;103188.69;;;8.77;100.00
20696;BME280;10507;52.754;13.040;2023-02-12T11:51:25;103114.13;;;8.67;100.00
20696;BME280;10507;52.754;13.040;2023-02-12T11:53:57;103173.59;;;8.86;100.00
20696;BME280;10507;52.754;13.040;2023-02-12T11:56:39;103170.00;;;9.00;100.00
20696;BME280;10507;52.754;13.040;2023-02-12T11:59:18;103100.75;;;8.93;100.00
20696;BME280;10507;52.754;13.040;2023-02-12T12:01:52;103130.94;;;9.02;100.00
20696;BME280;10507;52.754;13.040;2023-02-12T12:04:24;103110.50;;;8.99;100.00
20696;BME280;10507;52.754;13.040;2023-02-12T12:06:58;103203.72;;;9.14;100.00
20696;BME280;10507;52.754;13.040;2023-02-12T12:09:33;103240.09;;;9.34;100.00
20696;BME280;10507;52.754;13.040;2023-02-12T12:12:09;103192.97;;;9.41;100.00
20696;BME280;10507;52.754;13.040;2023-02-12T12:14:45;103089.03;;;9.30;100.00
20696;BME280;10507;52.754;13.040;2023-02-12T12:17:39;103096.16;;;9.29;100.00
20696;BME280;10507;52.754;13.040;2023-02-12T12:20:28;103108.56;;;9.32;100.00
20696;BME280;10507;52.754;13.040;2023-02-12T12:23:02;103090.78;;;9.34;99.88
20696;BME280;10507;52.754;13.040;2023-02-12T12:25:35;103028.69;;;9.16;99.95
20696;BME280;10507;52.754;13.040;2023-02-12T12:28:27;103029.56;;;9.20;100.00
20696;BME280;10507;52.754;13.040;2023-02-12T12:31:03;103105.00;;;9.38;99.62
20696;BME280;10507;52.754;13.040;2023-02-12T12:33:39;103131.53;;;9.61;99.83
20696;BME280;10507;52.754;13.040;2023-02-12T12:36:32;103117.19;;;9.77;99.53
20696;BME280;10507;52.754;13.040;2023-02-12T12:39:11;103058.53;;;9.74;98.79
20696;BME280;10507;52.754;13.040;2023-02-12T12:41:53;103023.84;;;9.74;98.75
20696;BME280;10507;52.754;13.040;2023-02-12T12:44:40;103057.56;;;9.81;98.86
20696;BME280;10507;52.754;13.040;2023-02-12T12:47:23;103081.56;;;9.84;99.35
20696;BME280;10507;52.754;13.040;2023-02-12T14:53:53;102740.38;;;9.60;98.94
20696;BME280;10507;52.754;13.040;2023-02-12T14:56:23;102719.22;;;9.44;99.29
20696;BME280;10507;52.754;13.040;2023-02-12T14:58:53;102745.91;;;9.44;99.31
20696;BME280;10507;52.754;13.040;2023-02-12T15:01:28;102764.59;;;9.40;99.73
20696;BME280;10507;52.754;13.040;2023-02-12T15:04:02;102785.06;;;9.34;100.00
20696;BME280;10507;52.754;13.040;2023-02-12T15:06:41;102792.25;;;9.31;100.00
20696;BME280;10507;52.754;13.040;2023-02-12T15:09:15;102838.34;;;9.39;100.00
20696;BME280;10507;52.754;13.040;2023-02-12T15:11:51;102838.34;;;9.39;100.00
20696;BME280;10507;52.754;13.040;2023-02-12T15:14:23;102851.63;;;9.44;100.00
20696;BME280;10507;52.754;13.040;2023-02-12T15:16:56;102799.31;;;9.35;100.00
20696;BME280;10507;52.754;13.040;2023-02-12T15:19:38;102797.53;;;9.34;100.00
20696;BME280;10507;52.754;13.040;2023-02-12T15:22:19;102761.19;;;9.27;100.00
20696;BME280;10507;52.754;13.040;2023-02-12T15:24:49;102787.84;;;9.28;100.00